Share

Bucks, AL (36512)

Markwood (KALCITRO1) Elev 308 ft | 31.08 °N, 88.24 °W | Change Station
Active Advisory: Flood Warning Active Notice: Record Report

Current weather conditions updated 19 minutes ago

Overcast
Overcast
56.0 °F
Feels Like 56.0 °F
N
0.0
Wind Variable Wind from South
Gusts 4.0 mph
Sunrise 6:20 AM
Sunset 7:22 PM
Moon Waning Gibbous

Tomorrow is forecast to be Much Warmer than today.

Pressure 30.10 in
Visibility 10.0 miles
Clouds Mostly Cloudy 3100 ft
Overcast 5500 ft
Dew Point 53 °F
Humidity 89%
Rainfall 0.47 in
Snow Depth Not available.
UV 0 out of 16
Pollen .90 out of 12
Ozone Good
Flu Activity Sporadic
METAR KMOB 190356Z 02011KT 10SM BKN031 OVC055 14/12 A3010 RMK AO2 SLP192 T01390122

More Conditions Fewer Conditions

Pressure 30.10 in
Visibility 10.0 miles
Clouds Mostly Cloudy 3100 ft
Overcast 5500 ft
Dew Point 53 °F
Humidity 89%
Rainfall 0.47 in
Snow Depth Not available.
UV 0 out of 16
Pollen .90 out of 12
Ozone Good
Flu Activity Sporadic
METAR KMOB 190356Z 02011KT 10SM BKN031 OVC055 14/12 A3010 RMK AO2 SLP192 T01390122

More Conditions Fewer Conditions

10-Day Weather Forecast

Almanac

Astronomy

Apr. 18, 2014 Rise Set
Actual Time 6:20 AM CDT 7:22 PM CDT
Civil Twilight 5:55 AM CDT 7:47 PM CDT
Nautical Twilight 5:26 AM CDT 8:17 PM CDT
Astronomical Twilight 4:55 AM CDT 8:47 PM CDT
Moon 10:58 PM CDT (4/18) 8:51 AM CDT (4/18)
Length of Visible Light 13h 51m
Length of Day
13h 01m
Tomorrow will be 1m 46s longer.
Waning Gibbous, 83% of the Moon is Illuminated
Apr 19
Waning Gibbous
Apr 22
Last Quarter
Apr 29
New
May 6
First Quarter
May 14
Full

Yesterday's Extremes

State Highs State Lows

Community

  • Sunset Silhouettes
    Sunset Silhouettes
  • FL sunset Perico Isle
    FL sunset Perico Isle
  • Cloudy spring view
    Cloudy spring view
  • Old barn
    Old barn
  • What's for Lunch?
    What's for Lunch?

WunderPhotos

Upload Photos

1,702,640 photos uploaded!

WunderBlogs® & News

Nearby

Air Quality

  Air Quality AQ Index Pollutant
Yesterday Good
OZONE
Current Good
OZONE
Friday Good
OZONE
Saturday Good
OZONE
Sunday Good
OZONE
Monday Good
OZONE

Snow Depth

Station Depth Elevation
No new snow has been reported.

Coastal Water Temperatures

Place Temperature
Mobile State Docks, AL 62.1 °F
Coast Guard Sector Mobile, AL 63.0 °F

Earthquake Activity

City Distance Mag. Time & Date
No recent earthquake activity has been reported nearby.
Minimum magnitude displayed is 2.5.

Nearby Weather Stations

Station Location Temp. Dew Point Humidity Wind Precip. Elev Updated Type
Markwood, Citronelle, AL 56.0 °F 53 °F 89% South  at  0.0 mph 0.00 in / hr 308 ft 11:27 PM CDT Normal
Chalet Ridge, Bay Minette, AL 55.6 °F 53 °F 92% ENE  at  0.0 mph 0.00 in / hr 285 ft 11:46 PM CDT Rapid Fire

Show More Stations Show Fewer Stations

What do you think?

We're not finished. Please let us know what you like, what you don't like, and what you are still missing.